createdAt,value
2022-08-07T00:02:39.839Z,23.70
2022-08-07T00:04:57.195Z,23.69
2022-08-07T00:07:24.101Z,23.68
2022-08-07T00:10:19.041Z,23.61
2022-08-07T00:12:57.902Z,23.58
2022-08-07T00:15:38.188Z,23.57
2022-08-07T00:18:23.947Z,23.60
2022-08-07T00:21:07.876Z,23.61
2022-08-07T00:23:55.575Z,23.61
2022-08-07T00:26:48.691Z,23.57
2022-08-07T00:29:13.214Z,23.56
2022-08-07T00:31:44.902Z,23.50
2022-08-07T00:34:17.731Z,23.47
2022-08-07T00:36:52.191Z,23.44
2022-08-07T00:39:21.362Z,23.37
2022-08-07T00:42:01.855Z,23.32
2022-08-07T00:44:34.302Z,23.31
2022-08-07T00:47:06.438Z,23.28
2022-08-07T00:50:20.546Z,23.25
2022-08-07T00:52:33.186Z,23.20
2022-08-07T00:55:04.646Z,23.16
2022-08-07T00:57:55.107Z,23.13
2022-08-07T01:00:24.079Z,23.10
2022-08-07T01:02:51.304Z,23.08
2022-08-07T01:05:20.645Z,23.05
2022-08-07T01:07:51.775Z,23.04
2022-08-07T01:10:19.371Z,23.05
2022-08-07T01:12:54.074Z,23.03
2022-08-07T01:15:35.664Z,23.00
2022-08-07T01:18:16.929Z,22.94
2022-08-07T01:21:17.558Z,22.87
2022-08-07T01:23:53.519Z,22.80
2022-08-07T01:26:23.009Z,22.76
2022-08-07T01:28:54.847Z,22.68
2022-08-07T01:31:42.554Z,22.64
2022-08-07T01:34:20.109Z,22.55
2022-08-07T01:36:58.454Z,22.47
2022-08-07T01:39:39.730Z,22.46
2022-08-07T01:42:39.982Z,22.43
2022-08-07T01:45:22.938Z,22.42
2022-08-07T01:48:21.479Z,22.40
2022-08-07T01:51:08.169Z,22.39
2022-08-07T01:54:11.926Z,22.38
2022-08-07T01:56:52.888Z,22.38
2022-08-07T01:59:35.561Z,22.34
2022-08-07T02:03:15.993Z,22.27
2022-08-07T02:05:58.555Z,22.21
2022-08-07T02:08:30.242Z,22.18
2022-08-07T02:10:59.250Z,22.17
2022-08-07T02:13:57.393Z,22.17
2022-08-07T02:16:29.958Z,22.16
2022-08-07T02:20:05.627Z,22.13
2022-08-07T02:21:58.548Z,22.09
2022-08-07T02:24:29.629Z,22.06
2022-08-07T02:27:00.172Z,22.04
2022-08-07T02:29:31.240Z,22.04
2022-08-07T02:32:01.153Z,22.04
2022-08-07T02:34:30.515Z,22.03
2022-08-07T02:37:03.467Z,22.02
2022-08-07T02:40:02.026Z,22.02
2022-08-07T02:42:25.751Z,22.01
2022-08-07T02:44:53.702Z,21.99
2022-08-07T02:47:23.472Z,21.96
2022-08-07T02:49:59.083Z,21.93
2022-08-07T02:52:38.860Z,21.89
2022-08-07T02:55:28.332Z,21.85
2022-08-07T02:58:10.603Z,21.79
2022-08-07T03:00:40.155Z,21.74
2022-08-07T03:03:13.740Z,21.70
2022-08-07T03:05:53.667Z,21.65
2022-08-07T03:08:26.777Z,21.63
2022-08-07T03:10:57.723Z,21.63
2022-08-07T03:13:38.702Z,21.63
2022-08-07T03:16:07.112Z,21.64
2022-08-07T03:18:36.185Z,21.67
2022-08-07T03:21:08.537Z,21.71
2022-08-07T03:24:21.080Z,21.73
2022-08-07T03:26:32.587Z,21.79
2022-08-07T03:29:03.759Z,21.83
2022-08-07T03:31:42.828Z,21.86
2022-08-07T03:34:18.602Z,21.86
2022-08-07T03:36:53.692Z,21.89
2022-08-07T03:39:46.098Z,21.95
2022-08-07T03:42:11.530Z,22.00
2022-08-07T03:44:40.456Z,22.03
2022-08-07T03:47:14.197Z,22.02
2022-08-07T03:49:47.664Z,21.98
2022-08-07T03:52:22.631Z,21.94
2022-08-07T03:55:07.151Z,21.89
2022-08-07T03:58:08.777Z,21.84
2022-08-07T04:00:33.527Z,21.80
2022-08-07T04:03:04.100Z,21.76
2022-08-07T04:05:40.204Z,21.71
2022-08-07T04:08:18.285Z,21.66
2022-08-07T04:10:54.428Z,21.61
2022-08-07T04:14:09.116Z,21.56
2022-08-07T04:16:30.911Z,21.50
2022-08-07T04:19:03.886Z,21.46
2022-08-07T04:21:39.573Z,21.43
2022-08-07T04:24:30.845Z,21.41
2022-08-07T04:27:04.373Z,21.40
2022-08-07T04:29:36.523Z,21.41
2022-08-07T04:32:16.992Z,21.41
2022-08-07T04:34:44.411Z,21.39
2022-08-07T04:37:20.228Z,21.37
2022-08-07T04:39:49.755Z,21.36
2022-08-07T04:42:17.261Z,21.36
2022-08-07T04:45:02.657Z,21.36
2022-08-07T04:48:01.190Z,21.37
2022-08-07T04:50:45.433Z,21.40
2022-08-07T04:54:05.734Z,21.42
2022-08-07T04:58:12.100Z,21.47
2022-08-07T05:00:09.602Z,21.53
2022-08-07T05:03:03.842Z,21.58
2022-08-07T05:05:52.651Z,21.62
2022-08-07T05:08:59.167Z,21.64
2022-08-07T05:11:57.536Z,21.65
2022-08-07T05:14:58.989Z,21.67
2022-08-07T05:17:52.658Z,21.71
2022-08-07T05:20:26.344Z,21.75
2022-08-07T05:23:01.076Z,21.83
2022-08-07T05:25:36.790Z,21.90
2022-08-07T05:28:23.042Z,21.97
2022-08-07T05:30:56.699Z,22.03
2022-08-07T05:33:26.071Z,22.06
2022-08-07T05:35:55.381Z,22.12
2022-08-07T05:39:01.264Z,22.16
2022-08-07T05:41:15.590Z,22.20
2022-08-07T05:44:08.786Z,22.22
2022-08-07T05:46:37.013Z,22.24
2022-08-07T05:49:12.015Z,22.26
2022-08-07T05:51:42.906Z,22.28
2022-08-07T05:54:29.352Z,22.30
2022-08-07T05:56:58.892Z,22.32
2022-08-07T05:59:27.513Z,22.36
2022-08-07T06:01:59.891Z,22.40
2022-08-07T06:04:30.015Z,22.46
2022-08-07T06:07:03.966Z,22.52
2022-08-07T06:10:04.068Z,22.59
2022-08-07T06:12:21.056Z,22.67
2022-08-07T06:15:02.971Z,22.75
2022-08-07T06:17:38.206Z,22.84
2022-08-07T06:20:12.524Z,22.94
2022-08-07T06:22:41.709Z,23.03
2022-08-07T06:25:36.189Z,23.14
2022-08-07T06:28:10.149Z,23.23
2022-08-07T06:30:45.871Z,23.30
2022-08-07T06:33:18.012Z,23.39
2022-08-07T06:35:47.731Z,23.49
2022-08-07T06:38:35.160Z,23.57
2022-08-07T06:41:09.772Z,23.62
2022-08-07T06:43:45.993Z,23.67
2022-08-07T06:46:20.466Z,23.75
2022-08-07T06:48:58.270Z,23.86
2022-08-07T06:51:33.571Z,23.97
2022-08-07T06:55:34.503Z,24.08
2022-08-07T06:56:54.042Z,24.20
2022-08-07T07:00:14.489Z,24.31
2022-08-07T07:02:48.992Z,24.45
2022-08-07T07:05:12.824Z,24.57
2022-08-07T07:07:59.815Z,24.66
2022-08-07T07:10:34.539Z,24.77
2022-08-07T07:13:13.729Z,24.86
2022-08-07T07:15:51.633Z,24.94
2022-08-07T07:18:43.071Z,25.03
2022-08-07T07:21:26.954Z,25.11
2022-08-07T07:24:12.594Z,25.19
2022-08-07T07:26:51.663Z,25.26
2022-08-07T07:29:39.390Z,25.34
2022-08-07T07:32:13.967Z,25.39
2022-08-07T07:34:45.973Z,25.44
2022-08-07T07:37:44.258Z,25.50
2022-08-07T07:40:10.275Z,25.58
2022-08-07T07:42:47.146Z,25.65
2022-08-07T07:46:38.104Z,25.72
2022-08-07T07:48:34.878Z,25.80
2022-08-07T07:51:07.989Z,25.87
2022-08-07T07:53:52.021Z,25.93
2022-08-07T07:56:30.125Z,25.94
2022-08-07T07:59:06.008Z,25.94
2022-08-07T08:02:02.130Z,26.00
2022-08-07T08:04:25.524Z,26.05
2022-08-07T08:06:54.619Z,26.13
2022-08-07T08:09:29.128Z,26.23
2022-08-07T08:13:00.020Z,26.34
2022-08-07T08:15:58.932Z,26.48
2022-08-07T08:18:31.734Z,26.57
2022-08-07T08:21:04.258Z,26.64
2022-08-07T08:23:56.704Z,26.67
2022-08-07T08:27:09.231Z,26.74
2022-08-07T08:29:54.538Z,26.84
2022-08-07T08:33:15.285Z,26.96
2022-08-07T08:36:47.228Z,27.07
2022-08-07T08:40:28.662Z,27.15
2022-08-07T08:44:01.284Z,27.19
2022-08-07T08:47:07.717Z,27.30
2022-08-07T08:50:05.381Z,27.35
2022-08-07T08:53:01.685Z,27.42
2022-08-07T08:56:08.978Z,27.52
2022-08-07T08:58:54.569Z,27.58
2022-08-07T09:01:46.518Z,27.65
2022-08-07T09:04:42.509Z,27.75
2022-08-07T09:07:27.745Z,27.86
2022-08-07T09:10:24.873Z,27.97
2022-08-07T09:13:06.451Z,28.07
2022-08-07T09:16:23.194Z,28.16
2022-08-07T09:19:51.440Z,28.25
2022-08-07T09:24:27.244Z,28.30
2022-08-07T09:25:14.487Z,28.37
2022-08-07T09:27:59.678Z,28.49
2022-08-07T09:30:56.036Z,28.62
2022-08-07T09:33:53.038Z,28.70
2022-08-07T09:36:36.911Z,28.79
2022-08-07T09:39:54.943Z,28.85
2022-08-07T09:42:45.587Z,28.85
2022-08-07T09:47:24.819Z,28.92
2022-08-07T09:50:00.531Z,29.01
2022-08-07T09:52:34.081Z,29.10
2022-08-07T09:55:29.403Z,29.20
2022-08-07T09:58:37.917Z,29.31
2022-08-07T10:01:52.186Z,29.42
2022-08-07T10:04:47.892Z,29.50
2022-08-07T10:07:52.442Z,29.59
2022-08-07T10:14:00.898Z,29.82
2022-08-07T10:16:56.268Z,29.94
2022-08-07T10:19:30.149Z,30.04
2022-08-07T10:22:33.548Z,30.10
2022-08-07T10:25:06.799Z,30.19
2022-08-07T10:27:53.052Z,30.32
2022-08-07T10:30:34.683Z,30.44
2022-08-07T10:34:04.868Z,30.58
2022-08-07T10:36:37.655Z,30.68
2022-08-07T10:39:25.790Z,30.66
2022-08-07T10:42:49.964Z,30.55
2022-08-07T10:45:58.751Z,30.46
2022-08-07T10:49:03.940Z,30.29
2022-08-07T10:52:02.393Z,30.16
2022-08-07T10:54:37.443Z,30.12
2022-08-07T10:57:34.484Z,30.18
2022-08-07T11:00:06.633Z,30.37
2022-08-07T11:02:55.121Z,30.52
2022-08-07T11:06:05.103Z,30.65
2022-08-07T11:08:48.751Z,30.73
2022-08-07T11:11:29.016Z,30.68
2022-08-07T11:14:45.764Z,30.59
2022-08-07T11:17:23.307Z,30.54
2022-08-07T11:20:10.583Z,30.52
2022-08-07T11:22:57.695Z,30.46
2022-08-07T11:25:24.391Z,30.42
2022-08-07T11:28:07.348Z,30.33
2022-08-07T11:30:56.400Z,30.42
2022-08-07T11:33:53.526Z,30.54
2022-08-07T11:36:39.941Z,30.68
2022-08-07T11:39:25.014Z,30.72
2022-08-07T11:42:29.959Z,30.76
2022-08-07T11:45:40.579Z,30.83
2022-08-07T11:48:29.066Z,31.00
2022-08-07T11:51:44.661Z,31.17
2022-08-07T11:54:32.797Z,31.31
2022-08-07T11:57:58.438Z,31.40
2022-08-07T12:00:20.002Z,31.47
2022-08-07T12:03:44.230Z,31.61
2022-08-07T12:06:55.337Z,31.79
2022-08-07T12:09:36.394Z,31.94
2022-08-07T12:12:11.593Z,32.06
2022-08-07T12:14:56.471Z,32.19
2022-08-07T12:17:58.900Z,32.30
2022-08-07T12:20:37.482Z,32.26
2022-08-07T12:23:16.511Z,32.25
2022-08-07T12:26:03.215Z,32.28
2022-08-07T12:28:57.290Z,32.23
2022-08-07T12:31:53.259Z,32.22
2022-08-07T12:34:16.111Z,32.25
2022-08-07T12:36:50.191Z,32.31
2022-08-07T12:39:42.263Z,32.42
2022-08-07T12:42:10.099Z,32.54
2022-08-07T12:44:45.915Z,32.62
2022-08-07T12:47:40.656Z,32.71
2022-08-07T12:50:39.104Z,32.81
2022-08-07T12:53:27.745Z,32.73
2022-08-07T12:56:11.749Z,32.67
2022-08-07T12:58:44.016Z,32.74
2022-08-07T13:01:32.132Z,32.63
2022-08-07T13:04:32.579Z,32.51
2022-08-07T13:08:12.681Z,32.46
2022-08-07T13:10:51.830Z,32.49
2022-08-07T13:13:51.463Z,32.58
2022-08-07T13:16:32.804Z,32.55
2022-08-07T13:19:46.109Z,32.48
2022-08-07T13:22:27.807Z,32.32
2022-08-07T13:25:24.228Z,32.15
2022-08-07T13:28:11.206Z,32.13
2022-08-07T13:30:53.165Z,32.19
2022-08-07T13:34:30.565Z,32.14
2022-08-07T13:36:42.978Z,32.02
2022-08-07T13:40:32.944Z,32.00
2022-08-07T13:42:30.300Z,32.19
2022-08-07T13:46:06.207Z,32.36
2022-08-07T13:48:06.585Z,32.51
2022-08-07T13:51:00.242Z,32.60
2022-08-07T13:53:35.989Z,32.49
2022-08-07T13:56:19.801Z,32.32
2022-08-07T13:59:10.376Z,32.28
2022-08-07T14:02:03.829Z,32.25
2022-08-07T14:04:48.983Z,32.16
2022-08-07T14:07:22.830Z,32.02
2022-08-07T14:10:01.230Z,31.90
2022-08-07T14:12:55.862Z,31.71
2022-08-07T14:15:35.169Z,31.45
2022-08-07T14:18:28.527Z,31.28
2022-08-07T14:21:20.838Z,31.16
2022-08-07T14:24:00.910Z,31.05
2022-08-07T14:30:08.106Z,30.45
2022-08-07T14:32:36.182Z,30.11
2022-08-07T14:35:06.010Z,29.85
2022-08-07T14:37:36.174Z,29.57
2022-08-07T14:40:16.080Z,29.34
2022-08-07T14:43:58.072Z,29.15
2022-08-07T14:45:59.451Z,29.02
2022-08-07T14:48:33.198Z,28.99
2022-08-07T14:51:04.793Z,29.02
2022-08-07T14:54:05.781Z,29.11
2022-08-07T15:00:03.042Z,29.19
2022-08-07T15:02:32.119Z,29.21
2022-08-07T15:05:02.959Z,29.24
2022-08-07T15:13:06.119Z,29.26
2022-08-07T15:13:16.904Z,29.20
2022-08-07T15:15:52.678Z,29.11
2022-08-07T15:18:51.666Z,29.02
2022-08-07T15:21:58.642Z,28.95
2022-08-07T15:25:16.234Z,28.94
2022-08-07T15:30:16.374Z,28.76
2022-08-07T15:33:01.516Z,28.64
2022-08-07T15:36:01.826Z,28.51
2022-08-07T15:38:30.917Z,28.37
2022-08-07T15:41:23.605Z,28.27
2022-08-07T15:44:06.999Z,28.16
2022-08-07T15:50:04.363Z,28.08
2022-08-07T15:52:21.371Z,28.16
2022-08-07T15:55:03.521Z,28.24
2022-08-07T15:57:47.644Z,28.35
2022-08-07T16:00:31.663Z,28.47
2022-08-07T16:03:21.503Z,28.59
2022-08-07T16:05:57.121Z,28.72
2022-08-07T16:08:32.161Z,28.83
2022-08-07T16:11:17.458Z,28.93
2022-08-07T16:14:02.847Z,29.00
2022-08-07T16:16:50.503Z,29.06
2022-08-07T16:19:42.883Z,29.04
2022-08-07T16:23:05.410Z,28.92
2022-08-07T16:26:04.399Z,28.75
2022-08-07T16:30:07.089Z,28.63
2022-08-07T16:32:00.640Z,28.54
2022-08-07T16:34:48.203Z,28.46
2022-08-07T16:38:06.405Z,28.38
2022-08-07T16:40:57.249Z,28.31
2022-08-07T16:44:03.909Z,28.21
2022-08-07T16:47:06.475Z,28.15
2022-08-07T16:50:28.294Z,28.08
2022-08-07T16:52:51.397Z,28.02
2022-08-07T16:55:27.869Z,27.96
2022-08-07T16:59:10.220Z,27.90
2022-08-07T17:01:34.250Z,27.85
2022-08-07T17:04:07.815Z,27.82
2022-08-07T17:07:13.648Z,27.83
2022-08-07T17:10:07.228Z,27.82
2022-08-07T17:13:01.080Z,27.81
2022-08-07T17:15:43.817Z,27.78
2022-08-07T17:18:38.832Z,27.74
2022-08-07T17:21:18.560Z,27.70
2022-08-07T17:24:16.321Z,27.69
2022-08-07T17:27:23.678Z,27.67
2022-08-07T17:30:14.354Z,27.56
2022-08-07T17:34:10.123Z,27.48
2022-08-07T17:36:32.531Z,27.43
2022-08-07T17:39:25.841Z,27.38
2022-08-07T17:43:02.010Z,27.32
2022-08-07T17:45:53.829Z,27.26
2022-08-07T17:48:38.863Z,27.20
2022-08-07T17:51:21.599Z,27.12
2022-08-07T17:54:29.887Z,27.05
2022-08-07T17:57:23.934Z,26.96
2022-08-07T18:00:14.754Z,26.89
2022-08-07T18:03:18.194Z,26.83
2022-08-07T18:06:02.147Z,26.77
2022-08-07T18:09:01.763Z,26.73
2022-08-07T18:12:07.027Z,26.69
2022-08-07T18:14:46.016Z,26.64
2022-08-07T18:17:13.111Z,26.59
2022-08-07T18:21:09.846Z,26.54
2022-08-07T18:23:01.777Z,26.51
2022-08-07T18:25:40.364Z,26.49
2022-08-07T18:28:34.150Z,26.48
2022-08-07T18:31:11.240Z,26.48
2022-08-07T18:33:55.247Z,26.45
2022-08-07T18:36:33.315Z,26.41
2022-08-07T18:40:05.736Z,26.39
2022-08-07T18:43:00.608Z,26.37
2022-08-07T18:46:25.358Z,26.33
2022-08-07T18:50:31.640Z,26.30
2022-08-07T18:52:25.629Z,26.29
2022-08-07T18:55:43.305Z,26.28
2022-08-07T18:57:59.433Z,26.27
2022-08-07T19:01:00.663Z,26.26
2022-08-07T19:03:52.307Z,26.25
2022-08-07T19:07:08.231Z,26.26
2022-08-07T19:09:57.455Z,26.25
2022-08-07T19:12:48.617Z,26.24
2022-08-07T19:16:02.955Z,26.24
2022-08-07T19:19:03.517Z,26.22
2022-08-07T19:21:56.012Z,26.23
2022-08-07T19:24:43.424Z,26.22
2022-08-07T19:28:58.402Z,26.21
2022-08-07T19:31:00.766Z,26.19
2022-08-07T19:33:10.393Z,26.13
2022-08-07T19:35:46.841Z,26.08
2022-08-07T19:38:17.673Z,26.06
2022-08-07T19:40:51.615Z,26.04
2022-08-07T19:43:49.218Z,26.01
2022-08-07T19:46:13.619Z,25.94
2022-08-07T19:48:53.825Z,25.77
2022-08-07T19:51:52.567Z,25.51
2022-08-07T19:54:33.335Z,25.30
2022-08-07T19:58:02.107Z,25.17
2022-08-07T20:00:01.885Z,25.06
2022-08-07T20:02:38.894Z,24.99
2022-08-07T20:05:10.398Z,24.97
2022-08-07T20:07:47.257Z,24.90
2022-08-07T20:10:35.353Z,24.78
2022-08-07T20:13:22.943Z,24.66
2022-08-07T20:15:54.585Z,24.54
2022-08-07T20:18:32.520Z,24.42
2022-08-07T20:21:02.318Z,24.33
2022-08-07T20:23:40.728Z,24.25
2022-08-07T20:26:10.810Z,24.18
2022-08-07T20:28:40.969Z,24.13
2022-08-07T20:31:21.353Z,24.15
2022-08-07T20:33:56.514Z,24.21
2022-08-07T20:36:29.034Z,24.26
2022-08-07T20:39:00.648Z,24.32
2022-08-07T20:41:50.238Z,24.33
2022-08-07T20:44:26.028Z,24.35
2022-08-07T20:47:05.804Z,24.41
2022-08-07T20:49:58.375Z,24.47
2022-08-07T20:52:51.354Z,24.47
2022-08-07T20:55:23.686Z,24.45
2022-08-07T20:58:02.612Z,24.45
2022-08-07T21:00:45.392Z,24.45
2022-08-07T21:03:25.964Z,24.49
2022-08-07T21:06:04.500Z,24.52
2022-08-07T21:09:00.541Z,24.58
2022-08-07T21:11:46.008Z,24.60
2022-08-07T21:14:33.069Z,24.62
2022-08-07T21:18:06.096Z,24.64
2022-08-07T21:20:29.525Z,24.64
2022-08-07T21:23:07.583Z,24.63
2022-08-07T21:25:42.622Z,24.61
2022-08-07T21:28:49.394Z,24.59
2022-08-07T21:31:50.060Z,24.56
2022-08-07T21:34:26.627Z,24.53
2022-08-07T21:37:21.078Z,24.49
2022-08-07T21:39:57.365Z,24.42
2022-08-07T21:42:46.794Z,24.34
2022-08-07T21:46:10.418Z,24.27
2022-08-07T21:48:27.774Z,24.21
2022-08-07T21:51:20.072Z,24.18
2022-08-07T21:54:00.788Z,24.17
2022-08-07T21:56:59.786Z,24.16
2022-08-07T22:00:06.119Z,24.15
2022-08-07T22:02:58.295Z,24.12
2022-08-07T22:05:45.138Z,24.10
2022-08-07T22:08:18.661Z,24.08
2022-08-07T22:10:53.171Z,24.05
2022-08-07T22:13:24.494Z,24.03
2022-08-07T22:16:39.458Z,23.99
2022-08-07T22:19:17.428Z,23.96
2022-08-07T22:22:21.497Z,23.91
2022-08-07T22:25:07.534Z,23.87
2022-08-07T22:28:32.233Z,23.83
2022-08-07T22:31:56.319Z,23.76
2022-08-07T22:34:12.933Z,23.69
2022-08-07T22:36:48.034Z,23.64
2022-08-07T22:39:35.498Z,23.62
2022-08-07T22:42:25.831Z,23.58
2022-08-07T22:44:59.745Z,23.54
2022-08-07T22:48:31.456Z,23.51
2022-08-07T22:51:27.174Z,23.48
2022-08-07T22:54:28.006Z,23.45
2022-08-07T22:57:14.693Z,23.42
2022-08-07T22:59:46.743Z,23.40
2022-08-07T23:02:19.904Z,23.37
2022-08-07T23:06:07.671Z,23.35
2022-08-07T23:07:48.667Z,23.31
2022-08-07T23:10:39.721Z,23.29
2022-08-07T23:13:48.700Z,23.27
2022-08-07T23:16:55.467Z,23.26
2022-08-07T23:19:58.013Z,23.25
2022-08-07T23:22:30.445Z,23.26
2022-08-07T23:24:57.450Z,23.27
2022-08-07T23:28:22.719Z,23.28
2022-08-07T23:32:48.851Z,23.26
2022-08-07T23:34:36.245Z,23.26
2022-08-07T23:37:29.422Z,23.27
2022-08-07T23:39:56.284Z,23.28
2022-08-07T23:42:35.691Z,23.28
2022-08-07T23:46:01.323Z,23.29
2022-08-07T23:48:28.889Z,23.29
2022-08-07T23:51:02.064Z,23.28
2022-08-07T23:53:51.853Z,23.30
2022-08-07T23:56:35.047Z,23.31
